Time;durP1;ratioP1;P1;durP2;ratioP2;P2;SDS_P1;SDS_P2;PMS_P1;PMS_P2;Temp;Humidity;BMP_temperature;BMP_pressure;BME280_temperature;BME280_humidity;BME280_pressure;Samples;Min_cycle;Max_cycle;Signal;HPM_P1;HPM_P2
2022/03/14 00:01:14;;;;;;;17.93;12.60;;;6.50;92.10;;;;;;5065652;28;20447;-91
2022/03/14 00:03:50;;;;;;;15.57;12.10;;;;;;;;;;5065888;28;20522;-89
2022/03/14 00:06:17;;;;;;;19.90;13.57;;;;;;;;;;5064444;28;20488;-89
2022/03/14 00:08:45;;;;;;;20.90;13.37;;;;;;;;;;5065136;28;20480;-91
2022/03/14 00:11:14;;;;;;;21.10;13.00;;;;;;;;;;5065619;28;20478;-92
2022/03/14 00:13:43;;;;;;;17.83;12.50;;;;;;;;;;5062611;28;20792;-89
2022/03/14 00:16:14;;;;;;;16.00;11.80;;;;;;;;;;5057595;28;20439;-91
2022/03/14 00:18:43;;;;;;;17.33;11.47;;;;;;;;;;5058154;28;20488;-90
2022/03/14 00:21:10;;;;;;;18.07;11.10;;;;;;;;;;5058303;28;20989;-89
2022/03/14 00:23:38;;;;;;;16.90;11.33;;;;;;;;;;5057594;28;20454;-90
2022/03/14 00:26:06;;;;;;;15.93;9.70;;;;;;;;;;5057599;28;21001;-90
2022/03/14 00:28:35;;;;;;;15.70;10.10;;;;;;;;;;5056597;28;20835;-89
2022/03/14 00:31:02;;;;;;;14.27;9.83;;;;;;;;;;5060271;28;20451;-90
2022/03/14 00:33:29;;;;;;;13.20;10.13;;;;;;;;;;5060020;28;20450;-90
2022/03/14 00:35:57;;;;;;;15.03;9.27;;;;;;;;;;5059145;28;20446;-89
2022/03/14 00:38:25;;;;;;;14.20;10.33;;;;;;;;;;5058538;28;21061;-94
2022/03/14 00:43:35;;;;;;;14.07;10.00;;;;;;;;;;5024783;28;20560;-91
2022/03/14 00:46:03;;;;;;;18.10;10.77;;;;;;;;;;5021644;28;20479;-89
2022/03/14 00:48:35;;;;;;;16.27;10.17;;;7.90;82.10;;;;;;5024630;28;20433;-89
2022/03/14 00:51:03;;;;;;;14.23;9.23;;;;;;;;;;5016472;28;20461;-91
2022/03/14 00:53:31;;;;;;;17.83;10.37;;;;;;;;;;5017415;28;20459;-90
2022/03/14 00:56:02;;;;;;;14.00;9.47;;;;;;;;;;5017027;28;20475;-91
2022/03/14 00:58:30;;;;;;;15.00;9.00;;;;;;;;;;5019160;28;20484;-93
2022/03/14 01:00:58;;;;;;;12.63;9.63;;;;;;;;;;5017814;28;20465;-92
2022/03/14 01:03:25;;;;;;;14.60;10.17;;;;;;;;;;5017225;28;20456;-92
2022/03/14 01:05:55;;;;;;;14.30;9.63;;;;;;;;;;5017453;28;20436;-90
2022/03/14 01:08:22;;;;;;;21.67;12.33;;;;;;;;;;5017121;28;20441;-91
2022/03/14 01:10:53;;;;;;;17.87;11.73;;;;;;;;;;5016956;28;20495;-91
2022/03/14 01:13:22;;;;;;;18.33;11.53;;;;;;;;;;5018524;28;20461;-93
2022/03/14 01:15:49;;;;;;;18.47;11.97;;;;;;;;;;5016732;28;20964;-91
2022/03/14 01:18:18;;;;;;;18.73;11.80;;;;;;;;;;5017095;28;20488;-91
2022/03/14 01:20:49;;;;;;;20.47;12.27;;;9.10;91.80;;;;;;5015913;28;20452;-91
2022/03/14 01:26:00;;;;;;;16.90;12.63;;;;;;;;;;5015748;28;20452;-92
2022/03/14 01:28:27;;;;;;;11.70;8.27;;;;;;;;;;5016004;28;20444;-92
2022/03/14 01:30:58;;;;;;;16.60;12.73;;;;;;;;;;5016258;28;20449;-93
2022/03/14 01:33:29;;;;;;;17.90;12.90;;;;;;;;;;5015881;28;20452;-91
2022/03/14 01:35:56;;;;;;;20.63;13.40;;;;;;;;;;5018593;28;20444;-92
2022/03/14 01:38:26;;;;;;;19.33;13.00;;;;;;;;;;5016950;28;20495;-93
2022/03/14 01:40:53;;;;;;;16.60;12.50;;;;;;;;;;5015105;28;20452;-90
2022/03/14 01:43:24;;;;;;;18.30;12.30;;;;;;;;;;5016736;28;20467;-91
2022/03/14 01:45:53;;;;;;;18.40;12.63;;;;;;;;;;5016323;28;20479;-91
2022/03/14 01:48:21;;;;;;;15.37;9.83;;;;;;;;;;5016399;28;20448;-93
2022/03/14 01:50:49;;;;;;;22.73;10.43;;;;;;;;;;5016703;28;20460;-91
2022/03/14 01:53:18;;;;;;;16.63;11.77;;;8.60;97.70;;;;;;5016627;28;20447;-92
2022/03/14 01:55:48;;;;;;;18.23;13.07;;;;;;;;;;5016174;28;20464;-91
2022/03/14 01:58:16;;;;;;;27.03;13.67;;;;;;;;;;5017005;28;20488;-92
2022/03/14 02:00:43;;;;;;;15.90;8.60;;;;;;;;;;5018791;28;20467;-92
2022/03/14 02:03:12;;;;;;;17.47;11.87;;;8.50;98.00;;;;;;5022480;28;28394;-92
2022/03/14 02:05:40;;;;;;;17.83;12.37;;;;;;;;;;5040068;28;20447;-91
2022/03/14 02:08:09;;;;;;;20.67;12.20;;;8.50;98.80;;;;;;5024535;28;20456;-94
2022/03/14 02:10:36;;;;;;;14.80;11.10;;;;;;;;;;5018868;28;20440;-92
2022/03/14 02:13:07;;;;;;;21.43;14.63;;;8.50;99.40;;;;;;5016277;28;20478;-92
2022/03/14 02:15:34;;;;;;;19.40;13.73;;;;;;;;;;5018180;28;20448;-92
2022/03/14 02:18:02;;;;;;;15.27;9.90;;;;;;;;;;5018462;28;20851;-92
2022/03/14 02:20:30;;;;;;;21.20;12.83;;;8.60;99.90;;;;;;5018982;28;20444;-91
2022/03/14 02:22:57;;;;;;;13.97;10.50;;;;;;;;;;5015571;28;20483;-93
2022/03/14 02:25:24;;;;;;;13.10;9.20;;;;;;;;;;5017995;28;20468;-91
2022/03/14 02:27:51;;;;;;;12.30;8.60;;;;;;;;;;5016862;28;20455;-91
2022/03/14 02:30:19;;;;;;;13.20;7.60;;;;;;;;;;5017639;28;20441;-92
2022/03/14 02:32:47;;;;;;;9.30;7.87;;;;;;;;;;5018265;28;20448;-92
2022/03/14 02:35:14;;;;;;;10.70;7.20;;;;;;;;;;5016712;28;20453;-91
2022/03/14 02:37:44;;;;;;;9.33;7.20;;;;;;;;;;5017726;28;20828;-92
2022/03/14 02:40:11;;;;;;;8.53;6.37;;;;;;;;;;5017366;28;20447;-93
2022/03/14 02:42:38;;;;;;;7.80;6.00;;;;;;;;;;5016456;28;20479;-92
2022/03/14 02:45:09;;;;;;;6.67;5.63;;;;;;;;;;5017469;28;20453;-92
2022/03/14 02:47:37;;;;;;;10.27;7.33;;;;;;;;;;5016487;28;20559;-92
2022/03/14 02:50:04;;;;;;;7.60;6.10;;;;;;;;;;5013964;28;20520;-93
2022/03/14 02:52:31;;;;;;;10.43;6.60;;;;;;;;;;5016270;28;20479;-91
2022/03/14 02:55:00;;;;;;;8.53;6.90;;;;;;;;;;5015090;28;20452;-92
2022/03/14 02:57:28;;;;;;;10.90;6.77;;;;;;;;;;5013940;28;20448;-92
2022/03/14 02:59:56;;;;;;;10.20;8.00;;;;;;;;;;5014482;28;20444;-92
2022/03/14 03:02:25;;;;;;;8.80;6.93;;;;;;;;;;5015023;28;20479;-91
2022/03/14 03:04:52;;;;;;;8.90;6.80;;;;;;;;;;5014858;28;20461;-92
2022/03/14 03:07:19;;;;;;;8.57;6.40;;;;;;;;;;5014823;28;20453;-92
2022/03/14 03:09:47;;;;;;;10.17;6.93;;;;;;;;;;5015180;28;20503;-92
2022/03/14 03:12:15;;;;;;;13.30;7.00;;;;;;;;;;5011428;28;20463;-93
2022/03/14 03:14:43;;;;;;;10.77;7.17;;;;;;;;;;5014358;28;20451;-92
2022/03/14 03:17:10;;;;;;;17.17;8.90;;;;;;;;;;5014415;28;20510;-93
2022/03/14 03:19:37;;;;;;;10.40;7.40;;;;;;;;;;5014496;28;20492;-93
2022/03/14 03:22:04;;;;;;;9.80;7.50;;;;;;;;;;5011693;28;20538;-93
2022/03/14 03:24:31;;;;;;;11.37;8.50;;;;;;;;;;5014950;28;20532;-94
2022/03/14 03:26:59;;;;;;;11.30;8.67;;;;;;;;;;5014810;28;20798;-92
2022/03/14 03:29:28;;;;;;;11.37;8.97;;;;;;;;;;5015243;28;20822;-93
2022/03/14 03:31:55;;;;;;;14.43;9.00;;;;;;;;;;5014961;28;20456;-93
2022/03/14 03:34:22;;;;;;;12.50;8.70;;;;;;;;;;5014736;28;21014;-92
2022/03/14 03:36:49;;;;;;;9.50;5.93;;;;;;;;;;5014530;28;20433;-92
2022/03/14 03:39:17;;;;;;;8.57;6.73;;;;;;;;;;5011739;28;20853;-91
2022/03/14 03:41:44;;;;;;;7.70;6.27;;;;;;;;;;5014646;28;20461;-92
2022/03/14 03:44:11;;;;;;;6.80;5.73;;;;;;;;;;5015233;28;20460;-91
2022/03/14 03:46:40;;;;;;;5.77;4.37;;;;;;;;;;5016928;28;20499;-90
2022/03/14 03:49:07;;;;;;;7.40;5.60;;;;;;;;;;5019411;28;20455;-91
2022/03/14 03:51:34;;;;;;;6.40;4.57;;;;;;;;;;5020235;28;20455;-91
2022/03/14 03:54:02;;;;;;;5.63;4.50;;;;;;;;;;5018616;28;20455;-93
2022/03/14 03:56:30;;;;;;;10.20;5.27;;;;;;;;;;5015867;28;20582;-91
2022/03/14 03:58:57;;;;;;;7.60;4.80;;;;;;;;;;5018931;28;20495;-91
2022/03/14 04:01:24;;;;;;;7.30;5.10;;;;;;;;;;5018062;28;20452;-93
2022/03/14 04:03:55;;;;;;;6.50;5.07;;;;;;;;;;5018321;28;20536;-92
2022/03/14 04:06:25;;;;;;;4.13;3.43;;;;;;;;;;5017935;28;20455;-92
2022/03/14 04:08:55;;;;;;;5.23;3.17;;;;;;;;;;5017811;28;20456;-91
2022/03/14 04:11:22;;;;;;;6.17;3.80;;;;;;;;;;5017021;28;20468;-93
2022/03/14 04:13:49;;;;;;;3.33;3.00;;;;;;;;;;5017887;28;20948;-91
2022/03/14 04:16:18;;;;;;;3.87;2.70;;;;;;;;;;5015037;28;20435;-93
2022/03/14 04:18:45;;;;;;;2.37;2.00;;;;;;;;;;5017850;28;20472;-92
2022/03/14 04:21:15;;;;;;;2.87;2.27;;;7.20;99.90;;;;;;5017567;28;20495;-93
2022/03/14 04:23:42;;;;;;;2.40;1.73;;;;;;;;;;4994449;28;21064;-92
2022/03/14 04:26:09;;;;;;;4.50;1.80;;;;;;;;;;4992229;28;20472;-92
2022/03/14 04:28:36;;;;;;;1.90;1.47;;;;;;;;;;4997392;28;20437;-92
2022/03/14 04:31:04;;;;;;;2.10;1.63;;;;;;;;;;4996150;28;20950;-94
2022/03/14 04:33:32;;;;;;;1.13;0.90;;;;;;;;;;4996733;28;21068;-93
2022/03/14 04:35:59;;;;;;;0.97;0.70;;;;;;;;;;4997075;28;20464;-92
2022/03/14 04:38:28;;;;;;;1.13;0.93;;;;;;;;;;4996799;28;20571;-92
2022/03/14 04:40:56;;;;;;;3.20;1.23;;;;;;;;;;5016290;28;20445;-92
2022/03/14 04:43:25;;;;;;;1.03;0.90;;;;;;;;;;5034216;28;20449;-93
2022/03/14 04:45:53;;;;;;;1.10;0.93;;;;;;;;;;5017794;28;20461;-94
2022/03/14 04:48:20;;;;;;;1.17;1.00;;;;;;;;;;5017568;28;20455;-92
2022/03/14 04:50:47;;;;;;;1.37;0.90;;;;;;;;;;5017982;28;20441;-91
2022/03/14 04:53:15;;;;;;;0.70;0.70;;;;;;;;;;5017974;28;20521;-93
2022/03/14 04:55:48;;;;;;;0.77;0.60;;;;;;;;;;5017877;28;20951;-92
2022/03/14 04:58:16;;;;;;;1.00;0.70;;;;;;;;;;5017472;28;20477;-92
2022/03/14 05:00:43;;;;;;;0.80;0.60;;;;;;;;;;5017824;28;20456;-92
2022/03/14 05:03:14;;;;;;;1.00;0.90;;;;;;;;;;5017371;28;20815;-91
2022/03/14 05:05:41;;;;;;;1.03;0.80;;;;;;;;;;5017702;28;20460;-90
2022/03/14 05:08:09;;;;;;;1.63;0.90;;;;;;;;;;5017424;28;20460;-93
2022/03/14 05:10:36;;;;;;;0.73;0.70;;;;;;;;;;5017858;28;20453;-90
2022/03/14 05:13:05;;;;;;;1.83;0.80;;;;;;;;;;5017344;28;20467;-92
2022/03/14 05:15:33;;;;;;;1.50;1.00;;;;;;;;;;5015236;28;20461;-91
2022/03/14 05:18:01;;;;;;;0.50;0.50;;;;;;;;;;5018155;28;20850;-92
2022/03/14 05:20:28;;;;;;;2.13;0.90;;;;;;;;;;5018526;28;20462;-92
2022/03/14 05:22:55;;;;;;;0.93;0.57;;;;;;;;;;5017440;28;20484;-90
2022/03/14 05:25:22;;;;;;;1.67;0.73;;;;;;;;;;5017848;28;20460;-92
2022/03/14 05:27:52;;;;;;;1.20;0.87;;;;;;;;;;5017891;28;20457;-93
2022/03/14 05:30:20;;;;;;;0.97;0.40;;;6.70;99.90;;;;;;5018356;28;20453;-91
2022/03/14 05:32:48;;;;;;;2.03;0.80;;;;;;;;;;5016798;28;20465;-91
2022/03/14 05:35:15;;;;;;;0.80;0.53;;;;;;;;;;5017969;28;20491;-92
2022/03/14 05:37:43;;;;;;;1.10;0.43;;;;;;;;;;5017592;28;20491;-91
2022/03/14 05:40:11;;;;;;;0.80;0.80;;;6.60;99.90;;;;;;5016616;28;20487;-91
2022/03/14 05:42:39;;;;;;;0.93;0.80;;;;;;;;;;5017032;28;20439;-92
2022/03/14 05:45:10;;;;;;;0.70;0.57;;;;;;;;;;5015975;28;20460;-91
2022/03/14 05:47:38;;;;;;;1.43;1.03;;;;;;;;;;5018158;28;20448;-91
2022/03/14 05:50:06;;;;;;;0.63;0.50;;;;;;;;;;4985778;28;20452;-90
2022/03/14 05:52:33;;;;;;;0.70;0.60;;;;;;;;;;5018161;28;20461;-91
2022/03/14 05:55:00;;;;;;;4.50;0.67;;;;;;;;;;5019507;28;20498;-91
2022/03/14 05:57:27;;;;;;;0.67;0.67;;;;;;;;;;4995158;28;20457;-91
2022/03/14 05:59:54;;;;;;;1.87;0.60;;;;;;;;;;4989768;28;20648;-92
2022/03/14 06:02:22;;;;;;;0.97;0.70;;;;;;;;;;5000459;28;20450;-92
2022/03/14 06:04:50;;;;;;;0.60;0.60;;;;;;;;;;4998986;28;20456;-92
2022/03/14 06:07:19;;;;;;;1.10;0.60;;;;;;;;;;4997775;28;20441;-92
2022/03/14 06:09:46;;;;;;;0.50;0.47;;;;;;;;;;4993652;28;20465;-90
2022/03/14 06:12:14;;;;;;;0.90;0.70;;;;;;;;;;4997124;28;20457;-92
2022/03/14 06:14:41;;;;;;;0.60;0.47;;;;;;;;;;4994916;28;20457;-91
2022/03/14 06:17:08;;;;;;;0.87;0.70;;;;;;;;;;5017987;28;20460;-89
2022/03/14 06:19:35;;;;;;;1.07;0.90;;;;;;;;;;5017608;28;20487;-90
2022/03/14 06:22:04;;;;;;;0.93;0.70;;;6.50;99.90;;;;;;5017110;28;20468;-90
2022/03/14 06:24:32;;;;;;;0.60;0.60;;;;;;;;;;5016223;28;20845;-89
2022/03/14 06:26:59;;;;;;;0.90;0.80;;;;;;;;;;5018481;28;20448;-92
2022/03/14 06:29:26;;;;;;;1.70;0.83;;;;;;;;;;5017151;28;20475;-90
2022/03/14 06:31:53;;;;;;;0.60;0.60;;;;;;;;;;5018006;28;20447;-90
2022/03/14 06:34:21;;;;;;;0.77;0.67;;;;;;;;;;5017994;28;20452;-91
2022/03/14 06:36:48;;;;;;;2.30;0.87;;;;;;;;;;5017682;28;20927;-90
2022/03/14 06:39:18;;;;;;;0.83;0.60;;;;;;;;;;5021017;28;20976;-91
2022/03/14 06:41:46;;;;;;;0.70;0.50;;;;;;;;;;5020095;28;20467;-91
2022/03/14 06:44:13;;;;;;;3.80;0.90;;;;;;;;;;5017132;28;20457;-90
2022/03/14 06:46:40;;;;;;;1.63;0.70;;;;;;;;;;5017171;28;20449;-90
2022/03/14 06:49:07;;;;;;;0.90;0.57;;;;;;;;;;5019472;28;20448;-92
2022/03/14 06:51:35;;;;;;;0.63;0.47;;;;;;;;;;5015885;28;20441;-89
2022/03/14 06:54:02;;;;;;;0.60;0.50;;;;;;;;;;5016490;28;20448;-88
2022/03/14 06:56:30;;;;;;;2.30;0.70;;;7.00;99.90;;;;;;5016590;28;20447;-90
2022/03/14 06:58:58;;;;;;;0.87;0.87;;;;;;;;;;5016908;28;20491;-89
2022/03/14 07:01:25;;;;;;;0.90;0.60;;;;;;;;;;5014967;28;20456;-91
2022/03/14 07:03:53;;;;;;;1.30;0.70;;;;;;;;;;5015235;28;20435;-90
2022/03/14 07:06:20;;;;;;;0.90;0.67;;;;;;;;;;5014866;28;20453;-91
2022/03/14 07:08:48;;;;;;;1.10;0.70;;;;;;;;;;5015374;28;20460;-90
2022/03/14 07:11:15;;;;;;;0.50;0.43;;;;;;;;;;5014105;28;20463;-88
2022/03/14 07:13:43;;;;;;;0.73;0.37;;;;;;;;;;5014627;28;20523;-89
2022/03/14 07:16:10;;;;;;;0.67;0.53;;;;;;;;;;5021357;28;20913;-90
2022/03/14 07:18:38;;;;;;;0.53;0.40;;;;;;;;;;5033449;28;20438;-90
2022/03/14 07:21:05;;;;;;;0.70;0.60;;;;;;;;;;5019160;28;20486;-88
2022/03/14 07:23:32;;;;;;;0.60;0.30;;;;;;;;;;5017437;28;20995;-89
2022/03/14 07:25:59;;;;;;;1.57;0.50;;;;;;;;;;5016525;28;20444;-86
2022/03/14 07:28:26;;;;;;;0.73;0.43;;;;;;;;;;5017419;28;20467;-88
2022/03/14 07:30:55;;;;;;;0.60;0.50;;;8.80;99.90;;;;;;5017296;28;20452;-91
2022/03/14 07:33:23;;;;;;;0.93;0.40;;;;;;;;;;5017313;28;20448;-91
2022/03/14 07:35:50;;;;;;;1.00;0.50;;;;;;;;;;5017222;28;20447;-89
2022/03/14 07:38:17;;;;;;;0.70;0.47;;;;;;;;;;5017356;28;20424;-86
2022/03/14 07:40:45;;;;;;;0.60;0.30;;;;;;;;;;5016763;28;20492;-87
2022/03/14 07:43:13;;;;;;;0.97;0.43;;;9.00;99.90;;;;;;5016777;28;20456;-89
2022/03/14 07:45:40;;;;;;;0.50;0.30;;;;;;;;;;5018804;28;20499;-89
2022/03/14 07:48:08;;;;;;;0.40;0.40;;;9.00;99.90;;;;;;5017218;28;20822;-88
2022/03/14 07:50:36;;;;;;;0.70;0.50;;;;;;;;;;5016789;28;20518;-86
2022/03/14 07:53:03;;;;;;;0.50;0.40;;;;;;;;;;5027162;28;20444;-85
2022/03/14 07:55:31;;;;;;;0.93;0.43;;;;;;;;;;5031686;28;20970;-89
2022/03/14 07:57:58;;;;;;;0.50;0.40;;;;;;;;;;5035133;28;20448;-83
2022/03/14 08:00:25;;;;;;;0.87;0.40;;;;;;;;;;5036234;28;20527;-85
2022/03/14 08:02:52;;;;;;;0.93;0.40;;;;;;;;;;5036240;28;20446;-87
2022/03/14 08:05:24;;;;;;;0.70;0.53;;;9.40;99.90;;;;;;5036205;28;20459;-87
2022/03/14 08:07:52;;;;;;;0.50;0.40;;;9.80;99.90;;;;;;5035816;28;20451;-84
2022/03/14 08:10:19;;;;;;;1.00;0.40;;;9.90;99.90;;;;;;5013479;28;20452;-86
2022/03/14 08:12:48;;;;;;;0.80;0.47;;;;;;;;;;5012791;28;20994;-85
2022/03/14 08:15:19;;;;;;;1.80;0.93;;;;;;;;;;5013831;28;20542;-86
2022/03/14 08:17:47;;;;;;;1.33;0.73;;;;;;;;;;5013723;28;20479;-86
2022/03/14 08:20:14;;;;;;;1.60;0.90;;;;;;;;;;5010904;28;20519;-85
2022/03/14 08:22:42;;;;;;;3.30;1.20;;;10.90;99.90;;;;;;5010963;28;20491;-85
2022/03/14 08:25:10;;;;;;;1.40;0.70;;;10.70;99.90;;;;;;5008787;28;20452;-85
2022/03/14 08:27:38;;;;;;;0.80;0.67;;;;;;;;;;5015584;28;20498;-85
2022/03/14 08:30:07;;;;;;;2.50;0.70;;;10.00;99.90;;;;;;5035418;28;20463;-85
2022/03/14 08:32:34;;;;;;;1.80;0.77;;;;;;;;;;5034673;28;20454;-86
2022/03/14 08:35:06;;;;;;;2.77;0.70;;;;;;;;;;5035251;28;20461;-86
2022/03/14 08:37:33;;;;;;;2.03;0.60;;;;;;;;;;5035415;28;20497;-85
2022/03/14 08:40:02;;;;;;;1.23;0.30;;;8.80;99.90;;;;;;5034785;28;20491;-85
2022/03/14 08:42:29;;;;;;;0.70;0.47;;;;;;;;;;5034157;28;20439;-85
2022/03/14 08:44:56;;;;;;;1.10;0.70;;;;;;;;;;5035377;28;21300;-86
2022/03/14 08:47:23;;;;;;;0.90;0.40;;;;;;;;;;5035393;28;20464;-86
2022/03/14 08:49:50;;;;;;;0.40;0.20;;;;;;;;;;5035517;28;20487;-87
2022/03/14 08:52:18;;;;;;;0.60;0.43;;;;;;;;;;5035317;28;20455;-87
2022/03/14 08:54:45;;;;;;;0.63;0.47;;;;;;;;;;5035015;28;20458;-86
2022/03/14 08:57:13;;;;;;;2.60;0.57;;;8.10;99.90;;;;;;5034213;28;20809;-86
2022/03/14 08:59:40;;;;;;;1.37;0.87;;;;;;;;;;5034830;28;20510;-86
2022/03/14 09:02:09;;;;;;;2.30;0.70;;;;;;;;;;5035137;28;20452;-87
2022/03/14 09:04:37;;;;;;;1.03;0.57;;;;;;;;;;5039438;28;20518;-87
2022/03/14 09:07:04;;;;;;;0.93;0.40;;;;;;;;;;5034971;28;20443;-86
2022/03/14 09:09:31;;;;;;;5.23;0.67;;;;;;;;;;5034618;28;20456;-90
2022/03/14 09:11:59;;;;;;;4.30;0.90;;;;;;;;;;5034155;28;20444;-92
2022/03/14 09:14:28;;;;;;;2.00;0.83;;;;;;;;;;5038711;28;20461;-90
2022/03/14 09:16:55;;;;;;;4.07;0.90;;;;;;;;;;5044074;28;20439;-89
2022/03/14 09:19:22;;;;;;;1.70;0.60;;;;;;;;;;5035113;28;20514;-90
2022/03/14 09:21:49;;;;;;;3.60;0.97;;;;;;;;;;5035718;28;20545;-89
2022/03/14 09:24:17;;;;;;;1.70;0.70;;;;;;;;;;5036289;28;20463;-90
2022/03/14 09:26:44;;;;;;;3.43;0.50;;;;;;;;;;5035705;28;20443;-89
2022/03/14 09:29:15;;;;;;;7.23;0.77;;;;;;;;;;5039802;28;20795;-90
2022/03/14 09:31:43;;;;;;;2.47;0.67;;;;;;;;;;5020712;28;20521;-90
2022/03/14 09:34:11;;;;;;;2.13;0.60;;;;;;;;;;5052551;28;20486;-91
2022/03/14 09:36:38;;;;;;;0.70;0.30;;;;;;;;;;5056614;28;20486;-91
2022/03/14 09:39:13;;;;;;;1.63;0.93;;;10.40;98.60;;;;;;5062517;23;20505;-92
2022/03/14 09:44:28;;;;;;;4.00;0.90;;;11.20;97.50;;;;;;5072777;23;20477;-91
2022/03/14 09:50:35;;;;;;;1.17;0.50;;;11.20;97.90;;;;;;5069995;23;20490;-92
2022/03/14 09:53:25;;;;;;;1.87;0.60;;;10.80;96.20;;;;;;5056276;23;20492;-91
2022/03/14 09:56:16;;;;;;;2.43;1.17;;;10.10;98.70;;;;;;5033118;28;20444;-87
2022/03/14 09:58:46;;;;;;;6.17;1.10;;;11.40;97.30;;;;;;5083711;23;20493;-91
2022/03/14 10:01:14;;;;;;;2.50;0.90;;;;;;;;;;5072472;28;20490;-89
2022/03/14 10:03:43;;;;;;;6.93;1.73;;;;;;;;;;5068397;23;20486;-91
2022/03/14 10:06:10;;;;;;;1.97;0.80;;;;;;;;;;5071592;28;20445;-93
2022/03/14 10:08:38;;;;;;;1.60;0.90;;;;;;;;;;5061314;28;20451;-90
2022/03/14 10:11:06;;;;;;;3.90;0.83;;;;;;;;;;5056813;28;20451;-96
2022/03/14 10:13:34;;;;;;;3.57;1.37;;;;;;;;;;5058295;28;20455;-93
2022/03/14 10:16:03;;;;;;;1.57;0.80;;;;;;;;;;5055690;28;20450;-89
2022/03/14 10:18:54;;;;;;;3.60;0.80;;;12.80;95.40;;;;;;5054650;28;20509;-90
2022/03/14 10:21:31;;;;;;;2.80;0.73;;;12.70;93.70;;;;;;5054502;28;20502;-92
2022/03/14 10:24:01;;;;;;;3.90;0.70;;;12.90;96.50;;;;;;5054368;28;20450;-91
2022/03/14 10:26:29;;;;;;;1.57;0.80;;;;;;;;;;5055247;28;20450;-90
2022/03/14 10:28:57;;;;;;;2.63;0.90;;;13.70;97.70;;;;;;5054285;28;20490;-89
2022/03/14 10:31:30;;;;;;;0.87;0.67;;;13.20;90.20;;;;;;5053896;28;20454;-90
2022/03/14 10:34:04;;;;;;;2.50;0.67;;;;;;;;;;5054370;28;20435;-90
2022/03/14 10:36:45;;;;;;;5.80;1.10;;;13.30;93.20;;;;;;5054658;28;20445;-90
2022/03/14 10:39:13;;;;;;;0.60;0.30;;;12.70;92.00;;;;;;5053623;28;20435;-92
2022/03/14 10:41:41;;;;;;;3.17;1.10;;;;;;;;;;5052968;28;20490;-91
2022/03/14 10:44:08;;;;;;;0.60;0.40;;;12.40;92.80;;;;;;5054163;28;20922;-91
2022/03/14 10:46:39;;;;;;;1.10;0.60;;;12.30;93.50;;;;;;5056067;28;20530;-92
2022/03/14 10:49:10;;;;;;;2.13;0.63;;;;;;;;;;5073991;28;20453;-91
2022/03/14 10:51:52;;;;;;;1.63;0.87;;;13.10;93.50;;;;;;5073700;28;20454;-90
2022/03/14 10:54:19;;;;;;;2.50;0.70;;;;;;;;;;5073873;28;20493;-91
2022/03/14 10:57:00;;;;;;;1.97;0.40;;;;;;;;;;5072528;28;20944;-90
2022/03/14 10:59:33;;;;;;;2.00;1.00;;;;;;;;;;5062361;28;20463;-90
2022/03/14 11:02:11;;;;;;;1.20;0.53;;;15.20;86.00;;;;;;5050267;28;20509;-92
2022/03/14 11:04:48;;;;;;;1.40;0.80;;;14.10;91.50;;;;;;5052097;28;20564;-94
2022/03/14 11:07:16;;;;;;;1.07;0.63;;;14.30;90.80;;;;;;5073105;28;20487;-91
2022/03/14 11:09:45;;;;;;;2.70;0.97;;;14.70;91.00;;;;;;5071246;28;20448;-91
2022/03/14 11:12:13;;;;;;;4.90;1.10;;;15.20;90.60;;;;;;5072511;28;20422;-90
2022/03/14 11:14:41;;;;;;;2.73;1.00;;;;;;;;;;5071150;28;20947;-92
2022/03/14 11:17:17;;;;;;;2.20;0.60;;;14.20;90.80;;;;;;5074155;28;21029;-91
2022/03/14 11:19:46;;;;;;;3.33;0.83;;;14.60;89.20;;;;;;5053330;28;20516;-90
2022/03/14 11:22:20;;;;;;;3.17;1.03;;;15.40;89.70;;;;;;5073821;28;20445;-90
2022/03/14 11:24:49;;;;;;;2.13;0.80;;;16.30;89.40;;;;;;5074077;28;20951;-90
2022/03/14 11:27:20;;;;;;;1.40;0.70;;;15.00;87.10;;;;;;5073434;28;20457;-89
2022/03/14 11:29:48;;;;;;;5.60;0.70;;;;;;;;;;5073838;28;20937;-90
2022/03/14 11:32:17;;;;;;;4.53;1.27;;;14.50;89.20;;;;;;5074385;28;20501;-89
2022/03/14 11:34:48;;;;;;;1.43;0.70;;;15.00;90.10;;;;;;5073206;28;20499;-88
2022/03/14 11:37:15;;;;;;;2.03;1.20;;;;;;;;;;5073231;28;20450;-89
2022/03/14 11:39:43;;;;;;;1.43;0.60;;;;;;;;;;5073380;28;20804;-90
2022/03/14 11:42:11;;;;;;;2.03;0.67;;;;;;;;;;5072493;28;20926;-89
2022/03/14 11:44:39;;;;;;;0.77;0.43;;;14.20;85.80;;;;;;5073275;28;20491;-93
2022/03/14 11:47:09;;;;;;;0.60;0.50;;;14.40;86.60;;;;;;5075289;28;20453;-92
2022/03/14 11:49:41;;;;;;;2.63;0.63;;;;;;;;;;5075116;28;20464;-91
2022/03/14 11:52:12;;;;;;;1.37;0.70;;;16.50;85.30;;;;;;5074967;28;20788;-93
2022/03/14 11:54:43;;;;;;;2.80;0.80;;;15.10;81.70;;;;;;5074545;28;20446;-94
2022/03/14 11:57:11;;;;;;;1.70;0.80;;;;;;;;;;5069963;28;20519;-93
2022/03/14 11:59:38;;;;;;;1.90;0.83;;;;;;;;;;5062471;28;20529;-93
2022/03/14 12:02:07;;;;;;;1.23;0.60;;;16.10;83.20;;;;;;5055145;28;20489;-93
2022/03/14 12:04:36;;;;;;;1.77;1.13;;;16.40;81.20;;;;;;5053910;28;20840;-94
2022/03/14 12:07:17;;;;;;;3.50;0.87;;;;;;;;;;5054544;28;20526;-96
2022/03/14 12:09:59;;;;;;;2.00;0.60;;;;;;;;;;5062251;28;20500;-93
2022/03/14 12:12:34;;;;;;;3.47;0.90;;;;;;;;;;5061931;28;20445;-93
2022/03/14 12:15:01;;;;;;;2.50;0.90;;;;;;;;;;5060938;28;20533;-95
2022/03/14 12:17:45;;;;;;;3.20;0.90;;;15.70;81.00;;;;;;5058761;28;20485;-93
2022/03/14 12:20:14;;;;;;;1.73;0.80;;;14.60;81.90;;;;;;5019470;28;20452;-93
2022/03/14 12:22:44;;;;;;;1.50;0.63;;;14.30;82.70;;;;;;5054552;28;20457;-92
2022/03/14 12:25:14;;;;;;;1.00;0.60;;;14.60;82.60;;;;;;5040923;28;20439;-89
2022/03/14 12:27:41;;;;;;;0.73;0.30;;;;;;;;;;5050051;28;20450;-93
2022/03/14 12:30:33;;;;;;;2.97;1.07;;;14.70;85.30;;;;;;5068450;28;20451;-93
2022/03/14 12:33:03;;;;;;;0.87;0.33;;;;;;;;;;5058258;28;20451;-91
2022/03/14 12:35:34;;;;;;;1.40;0.60;;;;;;;;;;5065268;28;20522;-92
2022/03/14 12:38:21;;;;;;;1.40;0.77;;;13.80;86.70;;;;;;5068675;28;20438;-93
2022/03/14 12:40:56;;;;;;;3.00;0.57;;;;;;;;;;5069634;28;20478;-94
2022/03/14 12:43:27;;;;;;;1.90;0.47;;;14.10;83.00;;;;;;5064278;28;20499;-93
2022/03/14 12:45:56;;;;;;;2.13;0.60;;;14.50;84.10;;;;;;5060997;28;20454;-92
2022/03/14 12:48:25;;;;;;;2.00;0.90;;;15.00;86.40;;;;;;5061229;28;20493;-93
2022/03/14 12:50:58;;;;;;;2.27;0.80;;;16.00;83.20;;;;;;5063123;28;20485;-93
2022/03/14 12:53:57;;;;;;;1.57;0.60;;;16.30;82.00;;;;;;5059452;28;20450;-92
2022/03/14 12:56:28;;;;;;;1.90;0.60;;;16.00;80.60;;;;;;5059853;28;20480;-95
2022/03/14 12:59:07;;;;;;;2.30;0.63;;;15.50;78.80;;;;;;5057829;28;20439;-90
2022/03/14 13:01:36;;;;;;;1.90;0.70;;;15.40;78.80;;;;;;5057653;28;20516;-93
2022/03/14 13:04:14;;;;;;;2.83;0.53;;;19.00;81.60;;;;;;5058037;28;20514;-93
2022/03/14 13:06:41;;;;;;;2.07;0.57;;;;;;;;;;5067925;28;20562;-95
2022/03/14 13:09:10;;;;;;;1.33;0.50;;;;;;;;;;5064149;28;20431;-91
2022/03/14 13:11:43;;;;;;;2.30;0.50;;;;;;;;;;5063651;28;20419;-93
2022/03/14 13:14:12;;;;;;;1.97;0.70;;;17.80;76.70;;;;;;5056787;28;20455;-92
2022/03/14 13:16:41;;;;;;;2.93;0.90;;;;;;;;;;5056314;28;20451;-91
2022/03/14 13:19:15;;;;;;;2.10;0.60;;;18.60;74.70;;;;;;5056576;28;20526;-92
2022/03/14 13:21:43;;;;;;;1.33;0.70;;;;;;;;;;5060462;28;20485;-93
2022/03/14 13:24:14;;;;;;;2.23;0.80;;;;;;;;;;5056847;28;20431;-94
2022/03/14 13:26:43;;;;;;;1.03;0.50;;;17.80;73.30;;;;;;5046816;28;20457;-93
2022/03/14 13:29:10;;;;;;;2.20;0.67;;;;;;;;;;5058870;28;20485;-95
2022/03/14 13:31:38;;;;;;;1.20;0.80;;;18.30;68.80;;;;;;5055461;28;20451;-93
2022/03/14 13:34:08;;;;;;;1.30;0.60;;;;;;;;;;5048154;28;20446;-94
2022/03/14 13:36:41;;;;;;;0.90;0.50;;;;;;;;;;5058894;28;20439;-91
2022/03/14 13:39:09;;;;;;;1.57;0.60;;;;;;;;;;5063705;28;20962;-93
2022/03/14 13:41:38;;;;;;;2.50;0.90;;;;;;;;;;5058573;28;20993;-93
2022/03/14 13:44:08;;;;;;;3.37;0.77;;;18.10;72.60;;;;;;5063929;28;20461;-94
2022/03/14 13:46:36;;;;;;;1.13;0.60;;;18.40;70.80;;;;;;5066005;28;20799;-94
2022/03/14 13:49:06;;;;;;;1.10;0.63;;;;;;;;;;5068214;28;20805;-93
2022/03/14 13:51:37;;;;;;;1.40;0.63;;;;;;;;;;5045563;28;20475;-94
2022/03/14 13:54:09;;;;;;;0.90;0.50;;;18.40;69.10;;;;;;5046718;28;20451;-95
2022/03/14 13:56:38;;;;;;;1.40;0.53;;;;;;;;;;5042515;28;20455;-94
2022/03/14 13:59:05;;;;;;;1.90;0.80;;;;;;;;;;5040999;28;20452;-94
2022/03/14 14:01:41;;;;;;;1.50;0.60;;;;;;;;;;5037176;28;20483;-94
2022/03/14 14:04:12;;;;;;;5.30;4.47;;;;;;;;;;5039131;28;20986;-91
2022/03/14 14:06:43;;;;;;;4.90;4.27;;;;;;;;;;5039814;28;20450;-91
2022/03/14 14:09:18;;;;;;;5.70;2.23;;;16.20;73.60;;;;;;5037226;28;20459;-91
2022/03/14 14:11:57;;;;;;;2.03;1.83;;;;;;;;;;5040070;28;20447;-95
2022/03/14 14:14:26;;;;;;;4.87;4.37;;;;;;;;;;5038986;28;20447;-95
2022/03/14 14:16:53;;;;;;;2.83;2.17;;;;;;;;;;5038624;28;20428;-95
2022/03/14 14:19:22;;;;;;;3.63;1.10;;;;;;;;;;5035008;28;21258;-96
2022/03/14 14:21:55;;;;;;;3.17;1.00;;;;;;;;;;5031594;28;20501;-94
2022/03/14 14:24:23;;;;;;;3.03;2.40;;;;;;;;;;5035322;28;20962;-92
2022/03/14 14:26:50;;;;;;;4.80;4.30;;;;;;;;;;5035075;28;21011;-94
2022/03/14 14:29:46;;;;;;;3.97;2.60;;;18.30;70.70;;;;;;5033545;28;20483;-95
2022/03/14 14:32:17;;;;;;;3.40;2.47;;;18.80;70.30;;;;;;5040111;28;20444;-94